Portada
METAR-TAF:

METAR-TAF

Aeroports :

Sohag, Egipte

latitud: 26-20-25N, longitud: 31-44-20E, altitud: 70 m

Observació

L'informe es va fer fa 1 hora i 31 minuts, a les 17:00 UTC
Vent 6 kt del Nord/Nord-Oest
Temperatura 23°C
Humitat 33%
Pressió 1010 hPa
Visibilitat 10 km o més
sense núvols per sota de 1500 mi sense presència de cumulonimbus.

METAR: HESG 261700Z 34006KT CAVOK 23/06 Q1010 NOSIG

Hora: 20:31 (18:31 UTC)

Pronòstic

L'informe es va fer fa 1 hora i 31 minuts, a les 17:00 UTC
Pronòstic vàlid del 26 a les 18 UTC al 27 a les 24 UTC
Vent 8 kt del Nord/Nord-Oest amb ràfegues de 20 kt
Visibilitat 10 km o més
sense núvols per sota de 1500 mi sense presència de cumulonimbus.
Temporalment
l' 26 a les 18 UTC al 27 a les 03 UTC
Visibilitat: 3000 m
sorra,

TAF: HESG 261700Z 2618/2724 33008G20KT CAVOK TEMPO 2618/2703 3000 SA NSC

Observacions i pronòstics meteorològics de més de 4000 aeroports (METAR i TAF).

Les estacions disponibles són els punts grocs i vermells al mapa.

Posi el ratolí al punt desitjat per veure el nom de l'estació.

Feu clic per veure les observacions i els pronòstics meteorològics.

Per canviar el mapa: feu clic els botons verds amb una creu de color negre per apropar; al botó verd amb un guió per allunyar la imatge; o en les fletxes verdes per a mapes adjacents.


METAR-TAF: